sensor_id;sensor_type;location;lat;lon;timestamp;P1;durP1;ratioP1;P2;durP2;ratioP2
22068;SDS011;13887;57.196;-2.100;2022-10-26T00:00:50;11.27;;;10.97;;
22068;SDS011;13887;57.196;-2.100;2022-10-26T00:03:17;11.03;;;10.73;;
22068;SDS011;13887;57.196;-2.100;2022-10-26T00:05:45;11.00;;;10.70;;
22068;SDS011;13887;57.196;-2.100;2022-10-26T00:08:12;11.53;;;11.13;;
22068;SDS011;13887;57.196;-2.100;2022-10-26T00:10:38;11.57;;;11.17;;
22068;SDS011;13887;57.196;-2.100;2022-10-26T00:13:07;10.93;;;10.63;;
22068;SDS011;13887;57.196;-2.100;2022-10-26T00:15:39;11.30;;;11.00;;
22068;SDS011;13887;57.196;-2.100;2022-10-26T00:18:08;10.97;;;10.67;;
22068;SDS011;13887;57.196;-2.100;2022-10-26T00:20:35;11.17;;;10.87;;
22068;SDS011;13887;57.196;-2.100;2022-10-26T00:23:02;10.97;;;10.67;;
22068;SDS011;13887;57.196;-2.100;2022-10-26T00:25:29;11.80;;;11.40;;
22068;SDS011;13887;57.196;-2.100;2022-10-26T00:27:56;11.60;;;11.20;;
22068;SDS011;13887;57.196;-2.100;2022-10-26T00:30:23;10.97;;;10.67;;
22068;SDS011;13887;57.196;-2.100;2022-10-26T00:32:50;11.20;;;10.90;;
22068;SDS011;13887;57.196;-2.100;2022-10-26T00:35:17;10.93;;;10.63;;
22068;SDS011;13887;57.196;-2.100;2022-10-26T00:38:00;11.53;;;11.13;;
22068;SDS011;13887;57.196;-2.100;2022-10-26T00:40:27;11.40;;;11.10;;
22068;SDS011;13887;57.196;-2.100;2022-10-26T00:42:55;11.40;;;11.10;;
22068;SDS011;13887;57.196;-2.100;2022-10-26T00:45:25;11.73;;;11.33;;
22068;SDS011;13887;57.196;-2.100;2022-10-26T00:47:57;11.57;;;11.20;;
22068;SDS011;13887;57.196;-2.100;2022-10-26T00:50:32;11.53;;;11.17;;
22068;SDS011;13887;57.196;-2.100;2022-10-26T00:53:03;11.30;;;11.00;;
22068;SDS011;13887;57.196;-2.100;2022-10-26T00:55:36;11.60;;;11.20;;
22068;SDS011;13887;57.196;-2.100;2022-10-26T00:58:06;11.70;;;11.30;;
22068;SDS011;13887;57.196;-2.100;2022-10-26T01:00:35;11.40;;;11.10;;
22068;SDS011;13887;57.196;-2.100;2022-10-26T01:03:05;11.30;;;11.00;;
22068;SDS011;13887;57.196;-2.100;2022-10-26T01:05:35;11.40;;;11.10;;
22068;SDS011;13887;57.196;-2.100;2022-10-26T01:08:03;11.83;;;11.43;;
22068;SDS011;13887;57.196;-2.100;2022-10-26T01:10:31;11.77;;;11.37;;
22068;SDS011;13887;57.196;-2.100;2022-10-26T01:12:58;11.77;;;11.37;;
22068;SDS011;13887;57.196;-2.100;2022-10-26T01:15:42;12.20;;;11.80;;
22068;SDS011;13887;57.196;-2.100;2022-10-26T01:18:26;12.17;;;11.77;;
22068;SDS011;13887;57.196;-2.100;2022-10-26T01:26:57;11.93;;;11.53;;
22068;SDS011;13887;57.196;-2.100;2022-10-26T01:29:49;11.90;;;11.50;;
22068;SDS011;13887;57.196;-2.100;2022-10-26T01:32:43;12.17;;;11.77;;
22068;SDS011;13887;57.196;-2.100;2022-10-26T01:38:03;11.93;;;11.53;;
22068;SDS011;13887;57.196;-2.100;2022-10-26T01:40:36;12.03;;;11.63;;
22068;SDS011;13887;57.196;-2.100;2022-10-26T01:43:07;11.87;;;11.47;;
22068;SDS011;13887;57.196;-2.100;2022-10-26T01:45:39;12.07;;;11.67;;
22068;SDS011;13887;57.196;-2.100;2022-10-26T01:48:11;12.23;;;11.83;;
22068;SDS011;13887;57.196;-2.100;2022-10-26T01:50:40;12.50;;;12.10;;
22068;SDS011;13887;57.196;-2.100;2022-10-26T01:53:11;12.20;;;11.80;;
22068;SDS011;13887;57.196;-2.100;2022-10-26T01:55:58;12.50;;;12.10;;
22068;SDS011;13887;57.196;-2.100;2022-10-26T02:02:06;11.90;;;11.50;;
22068;SDS011;13887;57.196;-2.100;2022-10-26T02:08:24;12.40;;;12.00;;
22068;SDS011;13887;57.196;-2.100;2022-10-26T02:13:53;12.57;;;12.17;;
22068;SDS011;13887;57.196;-2.100;2022-10-26T02:16:31;12.37;;;11.97;;
22068;SDS011;13887;57.196;-2.100;2022-10-26T02:21:47;12.87;;;12.47;;
22068;SDS011;13887;57.196;-2.100;2022-10-26T02:24:20;12.23;;;11.83;;
22068;SDS011;13887;57.196;-2.100;2022-10-26T02:26:48;12.33;;;11.93;;
22068;SDS011;13887;57.196;-2.100;2022-10-26T02:29:18;12.67;;;12.27;;
22068;SDS011;13887;57.196;-2.100;2022-10-26T02:31:46;12.40;;;12.00;;
22068;SDS011;13887;57.196;-2.100;2022-10-26T02:34:17;12.30;;;11.90;;
22068;SDS011;13887;57.196;-2.100;2022-10-26T02:36:49;13.00;;;12.60;;
22068;SDS011;13887;57.196;-2.100;2022-10-26T02:39:18;12.20;;;11.80;;
22068;SDS011;13887;57.196;-2.100;2022-10-26T02:41:47;12.70;;;12.30;;
22068;SDS011;13887;57.196;-2.100;2022-10-26T02:44:17;12.63;;;12.23;;
22068;SDS011;13887;57.196;-2.100;2022-10-26T02:46:50;12.13;;;11.73;;
22068;SDS011;13887;57.196;-2.100;2022-10-26T02:49:18;12.60;;;12.20;;
22068;SDS011;13887;57.196;-2.100;2022-10-26T02:51:51;12.37;;;11.97;;
22068;SDS011;13887;57.196;-2.100;2022-10-26T02:57:40;12.53;;;12.13;;
22068;SDS011;13887;57.196;-2.100;2022-10-26T03:00:11;12.40;;;12.00;;
22068;SDS011;13887;57.196;-2.100;2022-10-26T03:02:41;12.70;;;12.30;;
22068;SDS011;13887;57.196;-2.100;2022-10-26T03:05:18;12.63;;;12.23;;
22068;SDS011;13887;57.196;-2.100;2022-10-26T03:07:48;12.37;;;11.97;;
22068;SDS011;13887;57.196;-2.100;2022-10-26T03:10:15;12.80;;;12.40;;
22068;SDS011;13887;57.196;-2.100;2022-10-26T03:12:42;12.70;;;12.30;;
22068;SDS011;13887;57.196;-2.100;2022-10-26T03:15:09;12.57;;;12.17;;
22068;SDS011;13887;57.196;-2.100;2022-10-26T03:17:36;12.40;;;12.00;;
22068;SDS011;13887;57.196;-2.100;2022-10-26T03:20:03;12.70;;;12.30;;
22068;SDS011;13887;57.196;-2.100;2022-10-26T03:22:30;12.33;;;11.93;;
22068;SDS011;13887;57.196;-2.100;2022-10-26T03:24:57;12.47;;;12.07;;
22068;SDS011;13887;57.196;-2.100;2022-10-26T03:27:24;12.50;;;12.10;;
22068;SDS011;13887;57.196;-2.100;2022-10-26T03:29:52;12.97;;;12.57;;
22068;SDS011;13887;57.196;-2.100;2022-10-26T03:32:19;12.90;;;12.50;;
22068;SDS011;13887;57.196;-2.100;2022-10-26T03:34:46;13.00;;;12.60;;
22068;SDS011;13887;57.196;-2.100;2022-10-26T03:37:13;13.20;;;12.80;;
22068;SDS011;13887;57.196;-2.100;2022-10-26T03:39:40;12.67;;;12.27;;
22068;SDS011;13887;57.196;-2.100;2022-10-26T03:42:06;13.30;;;12.90;;
22068;SDS011;13887;57.196;-2.100;2022-10-26T03:44:33;13.03;;;12.63;;
22068;SDS011;13887;57.196;-2.100;2022-10-26T03:47:00;13.40;;;13.00;;
22068;SDS011;13887;57.196;-2.100;2022-10-26T03:49:27;13.30;;;12.90;;
22068;SDS011;13887;57.196;-2.100;2022-10-26T03:51:54;13.10;;;12.70;;
22068;SDS011;13887;57.196;-2.100;2022-10-26T03:54:20;13.00;;;12.60;;
22068;SDS011;13887;57.196;-2.100;2022-10-26T03:56:47;13.07;;;12.67;;
22068;SDS011;13887;57.196;-2.100;2022-10-26T03:59:20;13.20;;;12.80;;
22068;SDS011;13887;57.196;-2.100;2022-10-26T04:01:47;13.30;;;12.90;;
22068;SDS011;13887;57.196;-2.100;2022-10-26T04:04:19;12.87;;;12.47;;
22068;SDS011;13887;57.196;-2.100;2022-10-26T04:06:46;13.70;;;13.20;;
22068;SDS011;13887;57.196;-2.100;2022-10-26T04:09:13;13.40;;;13.00;;
22068;SDS011;13887;57.196;-2.100;2022-10-26T04:11:40;12.93;;;12.53;;
22068;SDS011;13887;57.196;-2.100;2022-10-26T04:14:07;13.27;;;12.87;;
22068;SDS011;13887;57.196;-2.100;2022-10-26T04:16:33;13.27;;;12.87;;
22068;SDS011;13887;57.196;-2.100;2022-10-26T04:19:00;13.10;;;12.70;;
22068;SDS011;13887;57.196;-2.100;2022-10-26T04:21:27;13.10;;;12.70;;
22068;SDS011;13887;57.196;-2.100;2022-10-26T04:23:54;13.50;;;13.10;;
22068;SDS011;13887;57.196;-2.100;2022-10-26T04:26:21;12.97;;;12.57;;
22068;SDS011;13887;57.196;-2.100;2022-10-26T04:28:48;13.10;;;12.70;;
22068;SDS011;13887;57.196;-2.100;2022-10-26T04:31:14;13.17;;;12.77;;
22068;SDS011;13887;57.196;-2.100;2022-10-26T04:33:41;13.10;;;12.70;;
22068;SDS011;13887;57.196;-2.100;2022-10-26T04:36:08;13.20;;;12.80;;
22068;SDS011;13887;57.196;-2.100;2022-10-26T04:38:35;13.87;;;13.37;;
22068;SDS011;13887;57.196;-2.100;2022-10-26T04:41:02;13.07;;;12.67;;
22068;SDS011;13887;57.196;-2.100;2022-10-26T04:43:29;13.43;;;13.03;;
22068;SDS011;13887;57.196;-2.100;2022-10-26T04:45:56;14.10;;;13.60;;
22068;SDS011;13887;57.196;-2.100;2022-10-26T04:48:23;13.77;;;13.27;;
22068;SDS011;13887;57.196;-2.100;2022-10-26T04:50:59;13.83;;;13.33;;
22068;SDS011;13887;57.196;-2.100;2022-10-26T04:53:26;13.97;;;13.47;;
22068;SDS011;13887;57.196;-2.100;2022-10-26T04:55:57;13.97;;;13.47;;
22068;SDS011;13887;57.196;-2.100;2022-10-26T04:58:25;13.77;;;13.27;;
22068;SDS011;13887;57.196;-2.100;2022-10-26T05:00:53;13.50;;;13.10;;
22068;SDS011;13887;57.196;-2.100;2022-10-26T05:03:20;14.10;;;13.60;;
22068;SDS011;13887;57.196;-2.100;2022-10-26T05:05:47;14.00;;;13.50;;
22068;SDS011;13887;57.196;-2.100;2022-10-26T05:08:14;14.20;;;13.70;;
22068;SDS011;13887;57.196;-2.100;2022-10-26T05:10:41;14.13;;;13.63;;
22068;SDS011;13887;57.196;-2.100;2022-10-26T05:13:08;14.47;;;13.97;;
22068;SDS011;13887;57.196;-2.100;2022-10-26T05:15:36;14.27;;;13.77;;
22068;SDS011;13887;57.196;-2.100;2022-10-26T05:18:03;13.73;;;13.23;;
22068;SDS011;13887;57.196;-2.100;2022-10-26T05:20:31;13.83;;;13.33;;
22068;SDS011;13887;57.196;-2.100;2022-10-26T05:23:04;14.83;;;14.33;;
22068;SDS011;13887;57.196;-2.100;2022-10-26T05:25:36;14.50;;;14.00;;
22068;SDS011;13887;57.196;-2.100;2022-10-26T05:28:05;14.83;;;14.33;;
22068;SDS011;13887;57.196;-2.100;2022-10-26T05:30:35;14.80;;;14.30;;
22068;SDS011;13887;57.196;-2.100;2022-10-26T05:33:02;14.93;;;14.43;;
22068;SDS011;13887;57.196;-2.100;2022-10-26T05:35:29;14.83;;;14.33;;
22068;SDS011;13887;57.196;-2.100;2022-10-26T05:37:57;14.73;;;14.23;;
22068;SDS011;13887;57.196;-2.100;2022-10-26T05:40:24;15.00;;;14.50;;
22068;SDS011;13887;57.196;-2.100;2022-10-26T05:42:51;14.97;;;14.47;;
22068;SDS011;13887;57.196;-2.100;2022-10-26T05:45:19;15.00;;;14.50;;
22068;SDS011;13887;57.196;-2.100;2022-10-26T05:47:46;14.83;;;14.33;;
22068;SDS011;13887;57.196;-2.100;2022-10-26T05:50:13;14.80;;;14.30;;
22068;SDS011;13887;57.196;-2.100;2022-10-26T05:52:44;14.67;;;14.17;;
22068;SDS011;13887;57.196;-2.100;2022-10-26T05:55:13;14.40;;;13.90;;
22068;SDS011;13887;57.196;-2.100;2022-10-26T05:57:43;14.13;;;13.63;;
22068;SDS011;13887;57.196;-2.100;2022-10-26T06:00:17;14.27;;;13.77;;
22068;SDS011;13887;57.196;-2.100;2022-10-26T06:02:53;14.27;;;13.77;;
22068;SDS011;13887;57.196;-2.100;2022-10-26T06:05:27;14.43;;;13.93;;
22068;SDS011;13887;57.196;-2.100;2022-10-26T06:07:57;14.50;;;14.00;;
22068;SDS011;13887;57.196;-2.100;2022-10-26T06:10:24;14.83;;;14.33;;
22068;SDS011;13887;57.196;-2.100;2022-10-26T06:12:51;14.70;;;14.20;;
22068;SDS011;13887;57.196;-2.100;2022-10-26T06:15:19;14.53;;;14.03;;
22068;SDS011;13887;57.196;-2.100;2022-10-26T06:20:50;14.70;;;14.20;;
22068;SDS011;13887;57.196;-2.100;2022-10-26T06:26:05;15.07;;;14.57;;
22068;SDS011;13887;57.196;-2.100;2022-10-26T06:31:33;14.83;;;14.33;;
22068;SDS011;13887;57.196;-2.100;2022-10-26T06:34:00;14.77;;;14.27;;
22068;SDS011;13887;57.196;-2.100;2022-10-26T06:36:27;14.73;;;14.23;;
22068;SDS011;13887;57.196;-2.100;2022-10-26T06:39:02;14.40;;;13.90;;
22068;SDS011;13887;57.196;-2.100;2022-10-26T06:41:33;14.90;;;14.40;;
22068;SDS011;13887;57.196;-2.100;2022-10-26T06:44:01;14.50;;;14.00;;
22068;SDS011;13887;57.196;-2.100;2022-10-26T06:49:22;14.90;;;14.40;;
22068;SDS011;13887;57.196;-2.100;2022-10-26T06:57:12;14.63;;;14.13;;
22068;SDS011;13887;57.196;-2.100;2022-10-26T06:59:50;14.73;;;14.23;;
22068;SDS011;13887;57.196;-2.100;2022-10-26T07:02:19;15.17;;;14.67;;
22068;SDS011;13887;57.196;-2.100;2022-10-26T07:04:46;15.33;;;14.83;;
22068;SDS011;13887;57.196;-2.100;2022-10-26T07:07:14;15.43;;;14.93;;
22068;SDS011;13887;57.196;-2.100;2022-10-26T07:09:45;15.33;;;14.83;;
22068;SDS011;13887;57.196;-2.100;2022-10-26T07:12:12;16.30;;;15.70;;
22068;SDS011;13887;57.196;-2.100;2022-10-26T07:14:39;15.80;;;15.20;;
22068;SDS011;13887;57.196;-2.100;2022-10-26T07:17:05;15.43;;;14.93;;
22068;SDS011;13887;57.196;-2.100;2022-10-26T07:19:33;15.03;;;14.53;;
22068;SDS011;13887;57.196;-2.100;2022-10-26T07:22:00;14.80;;;14.30;;
22068;SDS011;13887;57.196;-2.100;2022-10-26T07:24:28;14.97;;;14.47;;
22068;SDS011;13887;57.196;-2.100;2022-10-26T07:26:55;14.87;;;14.37;;
22068;SDS011;13887;57.196;-2.100;2022-10-26T07:29:23;14.97;;;14.47;;
22068;SDS011;13887;57.196;-2.100;2022-10-26T07:31:52;15.60;;;15.10;;
22068;SDS011;13887;57.196;-2.100;2022-10-26T07:34:23;14.77;;;14.27;;
22068;SDS011;13887;57.196;-2.100;2022-10-26T07:36:51;14.33;;;13.83;;
22068;SDS011;13887;57.196;-2.100;2022-10-26T07:39:17;14.40;;;13.90;;
22068;SDS011;13887;57.196;-2.100;2022-10-26T07:41:44;14.20;;;13.70;;
22068;SDS011;13887;57.196;-2.100;2022-10-26T07:44:12;14.30;;;13.80;;
22068;SDS011;13887;57.196;-2.100;2022-10-26T07:46:39;14.83;;;14.33;;
22068;SDS011;13887;57.196;-2.100;2022-10-26T07:49:06;15.07;;;14.57;;
22068;SDS011;13887;57.196;-2.100;2022-10-26T07:51:32;14.70;;;14.20;;
22068;SDS011;13887;57.196;-2.100;2022-10-26T07:53:59;14.90;;;14.40;;
22068;SDS011;13887;57.196;-2.100;2022-10-26T07:56:26;14.57;;;14.07;;
22068;SDS011;13887;57.196;-2.100;2022-10-26T07:58:54;14.90;;;14.40;;
22068;SDS011;13887;57.196;-2.100;2022-10-26T08:01:21;15.13;;;14.63;;
22068;SDS011;13887;57.196;-2.100;2022-10-26T08:03:50;15.03;;;14.53;;
22068;SDS011;13887;57.196;-2.100;2022-10-26T08:06:21;15.40;;;14.90;;
22068;SDS011;13887;57.196;-2.100;2022-10-26T08:08:48;14.37;;;13.87;;
22068;SDS011;13887;57.196;-2.100;2022-10-26T08:11:16;14.90;;;14.40;;
22068;SDS011;13887;57.196;-2.100;2022-10-26T08:13:43;14.77;;;14.27;;
22068;SDS011;13887;57.196;-2.100;2022-10-26T08:16:10;14.70;;;14.20;;
22068;SDS011;13887;57.196;-2.100;2022-10-26T08:18:37;15.13;;;14.63;;
22068;SDS011;13887;57.196;-2.100;2022-10-26T08:21:05;14.53;;;14.03;;
22068;SDS011;13887;57.196;-2.100;2022-10-26T08:23:38;14.53;;;14.03;;
22068;SDS011;13887;57.196;-2.100;2022-10-26T08:26:06;14.73;;;14.23;;
22068;SDS011;13887;57.196;-2.100;2022-10-26T08:28:33;14.77;;;14.27;;
22068;SDS011;13887;57.196;-2.100;2022-10-26T08:31:00;14.47;;;13.97;;
22068;SDS011;13887;57.196;-2.100;2022-10-26T08:33:27;13.60;;;13.20;;
22068;SDS011;13887;57.196;-2.100;2022-10-26T08:35:55;14.00;;;13.50;;
22068;SDS011;13887;57.196;-2.100;2022-10-26T08:38:26;13.57;;;13.17;;
22068;SDS011;13887;57.196;-2.100;2022-10-26T08:40:53;14.13;;;13.63;;
22068;SDS011;13887;57.196;-2.100;2022-10-26T08:45:54;14.33;;;13.83;;
22068;SDS011;13887;57.196;-2.100;2022-10-26T08:48:33;14.20;;;13.70;;
22068;SDS011;13887;57.196;-2.100;2022-10-26T08:51:08;14.67;;;14.17;;
22068;SDS011;13887;57.196;-2.100;2022-10-26T08:53:50;15.07;;;14.57;;
22068;SDS011;13887;57.196;-2.100;2022-10-26T08:56:23;14.77;;;14.27;;
22068;SDS011;13887;57.196;-2.100;2022-10-26T08:58:58;14.33;;;13.83;;
22068;SDS011;13887;57.196;-2.100;2022-10-26T09:01:32;14.30;;;13.80;;
22068;SDS011;13887;57.196;-2.100;2022-10-26T09:04:00;14.13;;;13.63;;
22068;SDS011;13887;57.196;-2.100;2022-10-26T09:10:09;14.23;;;13.73;;
22068;SDS011;13887;57.196;-2.100;2022-10-26T09:12:12;14.20;;;13.70;;
22068;SDS011;13887;57.196;-2.100;2022-10-26T09:15:03;14.03;;;13.53;;
22068;SDS011;13887;57.196;-2.100;2022-10-26T09:17:53;14.47;;;13.97;;
22068;SDS011;13887;57.196;-2.100;2022-10-26T09:20:38;15.13;;;14.63;;
22068;SDS011;13887;57.196;-2.100;2022-10-26T09:25:42;14.83;;;14.33;;
22068;SDS011;13887;57.196;-2.100;2022-10-26T09:28:15;15.07;;;14.57;;
22068;SDS011;13887;57.196;-2.100;2022-10-26T09:30:44;14.97;;;14.47;;
22068;SDS011;13887;57.196;-2.100;2022-10-26T09:33:19;15.00;;;14.50;;
22068;SDS011;13887;57.196;-2.100;2022-10-26T09:38:43;14.50;;;14.00;;
22068;SDS011;13887;57.196;-2.100;2022-10-26T09:41:55;14.70;;;14.20;;
22068;SDS011;13887;57.196;-2.100;2022-10-26T09:44:21;15.03;;;14.53;;
22068;SDS011;13887;57.196;-2.100;2022-10-26T09:46:59;15.40;;;14.90;;
22068;SDS011;13887;57.196;-2.100;2022-10-26T09:49:47;15.50;;;15.00;;
22068;SDS011;13887;57.196;-2.100;2022-10-26T09:52:25;14.90;;;14.40;;
22068;SDS011;13887;57.196;-2.100;2022-10-26T09:54:52;15.07;;;14.57;;
22068;SDS011;13887;57.196;-2.100;2022-10-26T09:57:19;14.60;;;14.10;;
22068;SDS011;13887;57.196;-2.100;2022-10-26T09:59:46;14.80;;;14.30;;
22068;SDS011;13887;57.196;-2.100;2022-10-26T10:02:31;15.17;;;14.67;;
22068;SDS011;13887;57.196;-2.100;2022-10-26T10:05:19;14.93;;;14.43;;
22068;SDS011;13887;57.196;-2.100;2022-10-26T10:13:38;14.63;;;14.13;;
22068;SDS011;13887;57.196;-2.100;2022-10-26T10:18:34;15.20;;;14.70;;
22068;SDS011;13887;57.196;-2.100;2022-10-26T10:21:01;15.10;;;14.60;;
22068;SDS011;13887;57.196;-2.100;2022-10-26T10:23:31;15.10;;;14.60;;
22068;SDS011;13887;57.196;-2.100;2022-10-26T10:26:01;14.90;;;14.40;;
22068;SDS011;13887;57.196;-2.100;2022-10-26T10:28:29;15.17;;;14.67;;
22068;SDS011;13887;57.196;-2.100;2022-10-26T10:30:59;15.33;;;14.83;;
22068;SDS011;13887;57.196;-2.100;2022-10-26T10:33:38;15.30;;;14.80;;
22068;SDS011;13887;57.196;-2.100;2022-10-26T10:36:07;15.90;;;15.30;;
22068;SDS011;13887;57.196;-2.100;2022-10-26T10:38:39;15.03;;;14.53;;
22068;SDS011;13887;57.196;-2.100;2022-10-26T10:44:06;15.53;;;15.03;;
22068;SDS011;13887;57.196;-2.100;2022-10-26T10:46:43;15.83;;;15.23;;
22068;SDS011;13887;57.196;-2.100;2022-10-26T10:49:17;15.20;;;14.70;;
22068;SDS011;13887;57.196;-2.100;2022-10-26T10:51:46;15.03;;;14.53;;
22068;SDS011;13887;57.196;-2.100;2022-10-26T10:56:50;15.27;;;14.77;;
22068;SDS011;13887;57.196;-2.100;2022-10-26T11:02:28;15.30;;;14.80;;
22068;SDS011;13887;57.196;-2.100;2022-10-26T11:08:27;15.10;;;14.60;;
22068;SDS011;13887;57.196;-2.100;2022-10-26T11:11:17;14.73;;;14.23;;
22068;SDS011;13887;57.196;-2.100;2022-10-26T11:14:00;15.03;;;14.53;;
22068;SDS011;13887;57.196;-2.100;2022-10-26T11:16:35;14.80;;;14.30;;
22068;SDS011;13887;57.196;-2.100;2022-10-26T11:19:10;14.80;;;14.30;;
22068;SDS011;13887;57.196;-2.100;2022-10-26T11:21:46;14.60;;;14.10;;
22068;SDS011;13887;57.196;-2.100;2022-10-26T11:24:19;14.60;;;14.10;;
22068;SDS011;13887;57.196;-2.100;2022-10-26T11:26:52;14.80;;;14.30;;
22068;SDS011;13887;57.196;-2.100;2022-10-26T11:29:28;14.60;;;14.10;;
22068;SDS011;13887;57.196;-2.100;2022-10-26T11:32:07;14.47;;;13.97;;
22068;SDS011;13887;57.196;-2.100;2022-10-26T11:35:04;14.77;;;14.27;;
22068;SDS011;13887;57.196;-2.100;2022-10-26T11:37:40;14.77;;;14.27;;
22068;SDS011;13887;57.196;-2.100;2022-10-26T11:40:24;14.70;;;14.20;;
22068;SDS011;13887;57.196;-2.100;2022-10-26T11:45:42;14.07;;;13.57;;
22068;SDS011;13887;57.196;-2.100;2022-10-26T11:48:13;14.33;;;13.83;;
22068;SDS011;13887;57.196;-2.100;2022-10-26T11:50:54;14.40;;;13.90;;
22068;SDS011;13887;57.196;-2.100;2022-10-26T11:53:24;14.17;;;13.67;;
22068;SDS011;13887;57.196;-2.100;2022-10-26T11:55:55;14.40;;;13.90;;
22068;SDS011;13887;57.196;-2.100;2022-10-26T11:58:25;14.00;;;13.50;;
22068;SDS011;13887;57.196;-2.100;2022-10-26T12:00:59;14.33;;;13.83;;
22068;SDS011;13887;57.196;-2.100;2022-10-26T12:03:31;14.07;;;13.57;;
22068;SDS011;13887;57.196;-2.100;2022-10-26T12:06:01;14.30;;;13.80;;
22068;SDS011;13887;57.196;-2.100;2022-10-26T12:08:39;13.97;;;13.47;;
22068;SDS011;13887;57.196;-2.100;2022-10-26T12:11:30;14.30;;;13.80;;
22068;SDS011;13887;57.196;-2.100;2022-10-26T12:14:28;14.17;;;13.67;;
22068;SDS011;13887;57.196;-2.100;2022-10-26T12:23:01;14.17;;;13.67;;
22068;SDS011;13887;57.196;-2.100;2022-10-26T12:25:29;14.43;;;13.93;;
22068;SDS011;13887;57.196;-2.100;2022-10-26T12:27:56;14.20;;;13.70;;
22068;SDS011;13887;57.196;-2.100;2022-10-26T12:30:32;14.43;;;13.93;;
22068;SDS011;13887;57.196;-2.100;2022-10-26T12:33:00;14.50;;;14.00;;
22068;SDS011;13887;57.196;-2.100;2022-10-26T12:35:35;13.97;;;13.47;;
22068;SDS011;13887;57.196;-2.100;2022-10-26T12:41:36;14.50;;;14.00;;
22068;SDS011;13887;57.196;-2.100;2022-10-26T12:43:46;14.20;;;13.70;;
22068;SDS011;13887;57.196;-2.100;2022-10-26T12:56:25;14.60;;;14.10;;
22068;SDS011;13887;57.196;-2.100;2022-10-26T13:04:14;14.77;;;14.27;;
22068;SDS011;13887;57.196;-2.100;2022-10-26T13:07:21;14.67;;;14.17;;
22068;SDS011;13887;57.196;-2.100;2022-10-26T13:10:00;14.13;;;13.63;;
22068;SDS011;13887;57.196;-2.100;2022-10-26T13:12:36;14.77;;;14.27;;
22068;SDS011;13887;57.196;-2.100;2022-10-26T13:20:32;15.10;;;14.60;;
22068;SDS011;13887;57.196;-2.100;2022-10-26T13:23:02;14.90;;;14.40;;
22068;SDS011;13887;57.196;-2.100;2022-10-26T13:25:41;14.67;;;14.17;;
22068;SDS011;13887;57.196;-2.100;2022-10-26T13:28:30;14.90;;;14.40;;
22068;SDS011;13887;57.196;-2.100;2022-10-26T13:31:04;14.97;;;14.47;;
22068;SDS011;13887;57.196;-2.100;2022-10-26T13:34:03;14.40;;;13.90;;
22068;SDS011;13887;57.196;-2.100;2022-10-26T13:39:31;14.33;;;13.83;;
22068;SDS011;13887;57.196;-2.100;2022-10-26T13:42:02;14.50;;;14.00;;
22068;SDS011;13887;57.196;-2.100;2022-10-26T13:44:43;14.37;;;13.87;;
22068;SDS011;13887;57.196;-2.100;2022-10-26T13:47:24;14.43;;;13.93;;
22068;SDS011;13887;57.196;-2.100;2022-10-26T13:50:05;14.83;;;14.33;;
22068;SDS011;13887;57.196;-2.100;2022-10-26T13:52:38;14.43;;;13.93;;
22068;SDS011;13887;57.196;-2.100;2022-10-26T13:55:22;14.33;;;13.83;;
22068;SDS011;13887;57.196;-2.100;2022-10-26T14:00:24;14.40;;;13.90;;
22068;SDS011;13887;57.196;-2.100;2022-10-26T14:02:51;14.07;;;13.57;;
22068;SDS011;13887;57.196;-2.100;2022-10-26T14:05:18;14.17;;;13.67;;
22068;SDS011;13887;57.196;-2.100;2022-10-26T14:13:06;13.90;;;13.40;;
22068;SDS011;13887;57.196;-2.100;2022-10-26T14:15:35;14.30;;;13.80;;
22068;SDS011;13887;57.196;-2.100;2022-10-26T14:18:02;13.93;;;13.43;;
22068;SDS011;13887;57.196;-2.100;2022-10-26T14:20:30;14.33;;;13.83;;
22068;SDS011;13887;57.196;-2.100;2022-10-26T14:22:57;14.37;;;13.87;;
22068;SDS011;13887;57.196;-2.100;2022-10-26T14:25:25;14.40;;;13.90;;
22068;SDS011;13887;57.196;-2.100;2022-10-26T14:28:22;14.60;;;14.10;;
22068;SDS011;13887;57.196;-2.100;2022-10-26T14:31:38;14.60;;;14.10;;
22068;SDS011;13887;57.196;-2.100;2022-10-26T14:33:47;14.67;;;14.17;;
22068;SDS011;13887;57.196;-2.100;2022-10-26T14:36:14;14.37;;;13.87;;
22068;SDS011;13887;57.196;-2.100;2022-10-26T14:38:46;14.47;;;13.97;;
22068;SDS011;13887;57.196;-2.100;2022-10-26T14:41:17;14.40;;;13.90;;
22068;SDS011;13887;57.196;-2.100;2022-10-26T14:43:45;14.90;;;14.40;;
22068;SDS011;13887;57.196;-2.100;2022-10-26T14:46:16;14.63;;;14.13;;
22068;SDS011;13887;57.196;-2.100;2022-10-26T14:48:54;14.50;;;14.00;;
22068;SDS011;13887;57.196;-2.100;2022-10-26T14:51:27;14.43;;;13.93;;
22068;SDS011;13887;57.196;-2.100;2022-10-26T14:53:57;14.50;;;14.00;;
22068;SDS011;13887;57.196;-2.100;2022-10-26T14:56:26;14.37;;;13.87;;
22068;SDS011;13887;57.196;-2.100;2022-10-26T14:59:11;14.40;;;13.90;;
22068;SDS011;13887;57.196;-2.100;2022-10-26T15:01:50;14.33;;;13.83;;
22068;SDS011;13887;57.196;-2.100;2022-10-26T15:09:47;14.47;;;13.97;;
22068;SDS011;13887;57.196;-2.100;2022-10-26T15:14:52;13.40;;;13.00;;
22068;SDS011;13887;57.196;-2.100;2022-10-26T15:17:23;13.40;;;13.00;;
22068;SDS011;13887;57.196;-2.100;2022-10-26T15:19:58;13.20;;;12.80;;
22068;SDS011;13887;57.196;-2.100;2022-10-26T15:22:29;13.63;;;13.20;;
22068;SDS011;13887;57.196;-2.100;2022-10-26T15:24:58;13.43;;;13.03;;
22068;SDS011;13887;57.196;-2.100;2022-10-26T15:27:29;13.87;;;13.37;;
22068;SDS011;13887;57.196;-2.100;2022-10-26T15:30:12;13.57;;;13.13;;
22068;SDS011;13887;57.196;-2.100;2022-10-26T15:32:53;14.30;;;13.80;;
22068;SDS011;13887;57.196;-2.100;2022-10-26T15:35:22;14.17;;;13.67;;
22068;SDS011;13887;57.196;-2.100;2022-10-26T15:37:50;13.70;;;13.20;;
22068;SDS011;13887;57.196;-2.100;2022-10-26T15:40:18;12.93;;;12.53;;
22068;SDS011;13887;57.196;-2.100;2022-10-26T15:42:50;13.30;;;12.90;;
22068;SDS011;13887;57.196;-2.100;2022-10-26T15:45:22;13.00;;;12.60;;
22068;SDS011;13887;57.196;-2.100;2022-10-26T15:47:59;13.40;;;13.00;;
22068;SDS011;13887;57.196;-2.100;2022-10-26T15:50:41;13.00;;;12.60;;
22068;SDS011;13887;57.196;-2.100;2022-10-26T15:53:08;13.37;;;12.97;;
22068;SDS011;13887;57.196;-2.100;2022-10-26T15:55:43;13.27;;;12.87;;
22068;SDS011;13887;57.196;-2.100;2022-10-26T15:58:10;13.17;;;12.77;;
22068;SDS011;13887;57.196;-2.100;2022-10-26T16:00:37;13.00;;;12.60;;
22068;SDS011;13887;57.196;-2.100;2022-10-26T16:03:03;13.07;;;12.67;;
22068;SDS011;13887;57.196;-2.100;2022-10-26T16:05:30;12.80;;;12.40;;
22068;SDS011;13887;57.196;-2.100;2022-10-26T16:08:02;12.50;;;12.10;;
22068;SDS011;13887;57.196;-2.100;2022-10-26T16:10:29;12.40;;;12.00;;
22068;SDS011;13887;57.196;-2.100;2022-10-26T16:12:56;12.57;;;12.17;;
22068;SDS011;13887;57.196;-2.100;2022-10-26T16:15:24;12.60;;;12.20;;
22068;SDS011;13887;57.196;-2.100;2022-10-26T16:17:51;13.00;;;12.60;;
22068;SDS011;13887;57.196;-2.100;2022-10-26T16:20:22;12.57;;;12.17;;
22068;SDS011;13887;57.196;-2.100;2022-10-26T16:22:51;12.23;;;11.83;;
22068;SDS011;13887;57.196;-2.100;2022-10-26T16:25:20;12.50;;;12.10;;
22068;SDS011;13887;57.196;-2.100;2022-10-26T16:27:48;12.50;;;12.10;;
22068;SDS011;13887;57.196;-2.100;2022-10-26T16:30:16;12.73;;;12.33;;
22068;SDS011;13887;57.196;-2.100;2022-10-26T16:32:44;12.57;;;12.17;;
22068;SDS011;13887;57.196;-2.100;2022-10-26T16:35:11;11.60;;;11.20;;
22068;SDS011;13887;57.196;-2.100;2022-10-26T16:37:39;12.70;;;12.30;;